Tropical Cyclones
[Index]
Main Index Home Page Stock Weather Photos Extreme Storms Discussion Storm News and Storm Chasing Reports Tropical Cyclones / Hurricanes / Typhoons Weather Data and Links Wild Fires / Bushfires Weather Observation Techniques Weather Picture Catalogue Tornado Pictures and Reports Stock Video Footage and DVDs for sale
Season 1982-1983 Tropical Cyclone OSCAR Track Map
Season 1982-1983 Summaries: [BoM-AU] [JTWC-AU] [JTWC-SIO] [JTWC-SPAC] [JTWC-SH]
<<- Previous TC | JTWC 1982-1983 Season | Next TC ->>

click for intensity scale information  Lat/long Grid: Show Hide

 Date Labels: Show Hide

Joint Typhoon Warning Centre Cyclone Data

Name: OSCAR

22 Feb 1983 18:00 UTC to 04 Mar 1983 06:00 UTC

    date/time    lat    long     hPa   cat  kts
1983-02-22 18   14.5   179.2                  25          
1983-02-23 00   15.2   178.4                  25          
1983-02-23 06   15.3   177.6                  25          
1983-02-23 12   15.0   176.9                  25          
1983-02-23 18   14.6   176.3                  25          
1983-02-24 00   14.3   175.7                  25          
1983-02-24 06   14.1   175.2                  25          
1983-02-24 12   14.0   174.8                  30          
1983-02-24 18   13.8   174.6            1     40          
1983-02-25 00   13.7   174.4            1     40          
1983-02-25 06   13.5   174.2            1     45          
1983-02-25 12   13.4   174.0            1     50          
1983-02-25 18   13.4   173.7            2     55          
1983-02-26 00   13.5   173.5            2     55          
1983-02-26 06   13.7   173.3            2     60          
1983-02-26 12   13.9   173.2            2     60          
1983-02-26 18   14.1   173.3            2     65          
1983-02-27 00   14.5   173.4            2     65          
1983-02-27 06   15.0   173.6            2     70          
1983-02-27 12   15.7   174.0            3     75          
1983-02-27 18   16.3   174.5            3     80          
1983-02-28 00   16.7   174.7            3     85          
1983-02-28 06   17.1   174.9            3     90          
1983-02-28 12   17.5   175.4            3     95          
1983-02-28 18   17.9   175.9            4    100          
1983-03-01 00   18.1   176.3            4    100          
1983-03-01 06   18.2   176.8            4    100          
1983-03-01 12   18.5   177.5            4    100          
1983-03-01 18   18.8   178.1            4    100          
1983-03-02 00   19.3   178.5            3     90          
1983-03-02 06   19.9   178.9            3     75          
1983-03-02 12   20.6   179.2            2     70          
1983-03-02 18   21.4   179.5            2     65          
1983-03-03 00   22.1   179.7            2     65          
1983-03-03 06   23.0   180.0            2     65          
1983-03-03 12   24.2   179.5W           2     65          
1983-03-03 18   25.5   178.6W           2     60          
1983-03-04 00   26.7   177.6W           1     50          
1983-03-04 06   27.9   176.4W                 35          
Winds are 1-min average.

Tropical cyclone tracks developed by Michael Bath using data from the Joint Typhoon Warning Centre Best Tracks and Google Maps.


[Australian Severe Weather index] [Copyright Notice] [Email Contacts] [Search This Site] [Privacy Policy]
Document: tropical_cyclone_oscar.htm Updated: 18 September 2016